createdAt,value
2018-09-29T00:02:11.418Z,1.23
2018-09-29T00:05:14.923Z,1.20
2018-09-29T00:08:18.339Z,1.53
2018-09-29T00:11:22.884Z,1.70
2018-09-29T00:14:26.396Z,1.60
2018-09-29T00:17:29.865Z,1.30
2018-09-29T00:20:33.383Z,1.80
2018-09-29T00:23:36.869Z,1.30
2018-09-29T00:26:40.396Z,1.50
2018-09-29T00:29:43.990Z,1.10
2018-09-29T00:32:47.711Z,1.20
2018-09-29T00:35:51.205Z,1.93
2018-09-29T00:38:54.732Z,1.60
2018-09-29T00:41:58.217Z,1.37
2018-09-29T00:45:01.701Z,1.70
2018-09-29T00:48:05.184Z,1.63
2018-09-29T00:51:08.682Z,1.70
2018-09-29T00:54:12.127Z,1.80
2018-09-29T00:57:15.619Z,1.70
2018-09-29T01:00:19.110Z,1.77
2018-09-29T01:03:22.613Z,1.70
2018-09-29T01:06:26.119Z,1.23
2018-09-29T01:09:29.648Z,1.87
2018-09-29T01:12:33.134Z,1.97
2018-09-29T01:15:36.690Z,1.43
2018-09-29T01:18:40.135Z,1.60
2018-09-29T01:21:43.646Z,1.73
2018-09-29T01:24:47.247Z,1.70
2018-09-29T01:27:50.728Z,1.53
2018-09-29T01:30:54.140Z,2.10
2018-09-29T01:33:57.648Z,1.90
2018-09-29T01:37:01.146Z,1.60
2018-09-29T01:40:04.692Z,1.33
2018-09-29T01:43:08.146Z,1.70
2018-09-29T01:46:11.593Z,1.80
2018-09-29T01:49:15.036Z,1.90
2018-09-29T01:52:18.452Z,1.63
2018-09-29T01:55:22.059Z,1.57
2018-09-29T01:58:25.558Z,1.80
2018-09-29T02:01:29.089Z,1.80
2018-09-29T02:04:32.575Z,2.40
2018-09-29T02:07:36.060Z,1.90
2018-09-29T02:10:39.495Z,1.43
2018-09-29T02:13:42.976Z,1.60
2018-09-29T02:16:46.471Z,1.70
2018-09-29T02:19:49.897Z,1.73
2018-09-29T02:22:53.461Z,1.80
2018-09-29T02:25:56.882Z,2.07
2018-09-29T02:29:00.371Z,2.07
2018-09-29T02:32:03.799Z,1.80
2018-09-29T02:35:07.365Z,1.57
2018-09-29T02:38:10.796Z,1.77
2018-09-29T02:41:14.289Z,1.80
2018-09-29T02:44:17.668Z,1.70
2018-09-29T02:47:21.202Z,1.67
2018-09-29T02:50:24.586Z,1.70
2018-09-29T02:53:27.999Z,1.80
2018-09-29T02:56:31.521Z,1.50
2018-09-29T02:59:34.989Z,1.40
2018-09-29T03:02:38.402Z,1.70
2018-09-29T03:05:41.896Z,1.50
2018-09-29T03:08:45.284Z,1.90
2018-09-29T03:11:48.695Z,1.97
2018-09-29T03:14:52.092Z,1.53
2018-09-29T03:17:55.581Z,1.20
2018-09-29T03:20:58.987Z,1.50
2018-09-29T03:24:02.460Z,1.20
2018-09-29T03:27:06.193Z,1.40
2018-09-29T03:30:09.602Z,1.33
2018-09-29T03:33:13.034Z,1.57
2018-09-29T03:36:16.512Z,1.20
2018-09-29T03:39:19.900Z,1.70
2018-09-29T03:42:23.308Z,1.33
2018-09-29T03:45:26.716Z,1.30
2018-09-29T03:48:30.105Z,1.33
2018-09-29T03:51:33.532Z,1.60
2018-09-29T03:54:36.894Z,1.20
2018-09-29T03:57:40.321Z,1.40
2018-09-29T04:00:43.805Z,1.60
2018-09-29T04:03:47.204Z,1.37
2018-09-29T04:06:50.979Z,1.30
2018-09-29T04:09:54.418Z,1.67
2018-09-29T04:12:57.933Z,1.40
2018-09-29T04:16:01.561Z,1.60
2018-09-29T04:19:05.093Z,1.40
2018-09-29T04:22:08.533Z,1.30
2018-09-29T04:25:11.983Z,1.60
2018-09-29T04:28:15.439Z,1.30
2018-09-29T04:31:18.932Z,1.47
2018-09-29T04:34:22.360Z,1.30
2018-09-29T04:37:25.782Z,1.40
2018-09-29T04:40:29.235Z,1.57
2018-09-29T04:43:32.641Z,1.40
2018-09-29T04:46:36.013Z,1.73
2018-09-29T04:49:39.434Z,1.40
2018-09-29T04:52:42.849Z,1.20
2018-09-29T04:55:46.221Z,1.27
2018-09-29T04:58:49.667Z,1.03
2018-09-29T05:01:53.042Z,1.60
2018-09-29T05:04:56.445Z,1.30
2018-09-29T05:07:59.848Z,1.37
2018-09-29T05:11:03.273Z,1.73
2018-09-29T05:14:07.200Z,1.53
2018-09-29T05:17:10.566Z,1.40
2018-09-29T05:20:14.040Z,1.40
2018-09-29T05:23:17.495Z,1.50
2018-09-29T05:26:20.869Z,1.67
2018-09-29T05:29:24.415Z,1.57
2018-09-29T05:32:27.882Z,1.53
2018-09-29T05:35:31.447Z,1.37
2018-09-29T05:38:35.144Z,2.03
2018-09-29T05:41:38.482Z,1.20
2018-09-29T05:44:41.965Z,1.67
2018-09-29T05:47:45.473Z,1.70
2018-09-29T05:50:48.994Z,1.60
2018-09-29T05:53:52.512Z,1.70
2018-09-29T05:56:55.975Z,2.00
2018-09-29T05:59:59.489Z,1.60
2018-09-29T06:03:03.043Z,2.10
2018-09-29T06:06:07.021Z,1.63
2018-09-29T06:09:10.766Z,1.40
2018-09-29T06:12:14.306Z,1.70
2018-09-29T06:15:18.412Z,1.80
2018-09-29T06:18:21.926Z,1.53
2018-09-29T06:21:25.424Z,1.60
2018-09-29T06:24:28.945Z,1.70
2018-09-29T06:27:32.437Z,1.40
2018-09-29T06:30:35.997Z,1.17
2018-09-29T06:33:41.097Z,1.50
2018-09-29T06:36:44.647Z,1.30
2018-09-29T06:39:48.065Z,1.60
2018-09-29T06:42:51.585Z,1.40
2018-09-29T06:45:55.106Z,1.50
2018-09-29T06:48:58.592Z,1.30
2018-09-29T06:52:02.163Z,1.70
2018-09-29T06:55:05.623Z,1.57
2018-09-29T06:58:12.430Z,1.50
2018-09-29T07:01:15.930Z,1.20
2018-09-29T07:04:19.657Z,1.63
2018-09-29T07:07:23.193Z,1.70
2018-09-29T07:10:26.714Z,1.50
2018-09-29T07:13:30.202Z,1.90
2018-09-29T07:16:33.753Z,1.40
2018-09-29T07:19:37.212Z,1.43
2018-09-29T07:22:40.695Z,1.80
2018-09-29T07:25:44.205Z,1.73
2018-09-29T07:28:47.719Z,1.57
2018-09-29T07:31:51.189Z,1.63
2018-09-29T07:34:55.008Z,1.47
2018-09-29T07:37:58.517Z,1.77
2018-09-29T07:41:02.089Z,1.53
2018-09-29T07:44:05.487Z,1.60
2018-09-29T07:47:08.917Z,1.40
2018-09-29T07:50:12.406Z,2.17
2018-09-29T07:53:15.917Z,2.07
2018-09-29T07:56:19.440Z,1.87
2018-09-29T07:59:22.924Z,1.53
2018-09-29T08:02:26.490Z,1.70
2018-09-29T08:05:30.029Z,1.57
2018-09-29T08:08:33.525Z,1.97
2018-09-29T08:11:37.065Z,1.60
2018-09-29T08:14:40.533Z,1.60
2018-09-29T08:17:43.934Z,1.20
2018-09-29T08:20:47.429Z,1.60
2018-09-29T08:23:50.848Z,1.60
2018-09-29T08:26:54.350Z,1.50
2018-09-29T08:29:57.843Z,1.80
2018-09-29T08:33:01.321Z,1.40
2018-09-29T08:36:04.753Z,1.30
2018-09-29T08:39:09.217Z,1.30
2018-09-29T08:42:12.684Z,1.63
2018-09-29T08:45:16.199Z,1.70
2018-09-29T08:48:19.769Z,1.77
2018-09-29T08:51:23.187Z,1.33
2018-09-29T08:54:26.728Z,1.93
2018-09-29T08:57:30.181Z,1.50
2018-09-29T09:00:33.576Z,1.17
2018-09-29T09:03:36.995Z,1.80
2018-09-29T09:06:40.479Z,1.20
2018-09-29T09:09:44.314Z,1.60
2018-09-29T09:12:48.741Z,1.23
2018-09-29T09:15:52.222Z,1.20
2018-09-29T09:18:55.727Z,1.30
2018-09-29T09:21:59.251Z,1.45
2018-09-29T09:25:02.751Z,1.07
2018-09-29T09:28:06.297Z,1.30
2018-09-29T09:31:09.698Z,1.33
2018-09-29T09:34:13.145Z,1.50
2018-09-29T09:37:16.540Z,1.60
2018-09-29T09:40:20.026Z,1.30
2018-09-29T09:43:23.460Z,1.10
2018-09-29T09:46:27.038Z,1.50
2018-09-29T09:49:30.703Z,1.10
2018-09-29T09:52:34.054Z,1.12
2018-09-29T09:55:37.513Z,1.17
2018-09-29T09:58:41.407Z,1.30
2018-09-29T10:02:53.235Z,1.02
2018-09-29T10:05:56.789Z,1.20
2018-09-29T10:09:00.577Z,1.23
2018-09-29T10:12:04.059Z,1.30
2018-09-29T10:15:07.561Z,1.12
2018-09-29T10:18:11.090Z,1.57
2018-09-29T10:21:14.510Z,1.40
2018-09-29T10:24:17.975Z,1.67
2018-09-29T10:27:21.389Z,1.10
2018-09-29T10:30:24.780Z,1.10
2018-09-29T10:33:28.222Z,1.10
2018-09-29T10:36:31.722Z,1.42
2018-09-29T10:39:35.307Z,1.27
2018-09-29T10:42:38.699Z,1.00
2018-09-29T10:45:42.089Z,1.25
2018-09-29T10:48:45.485Z,1.30
2018-09-29T10:51:48.884Z,1.22
2018-09-29T10:54:52.304Z,1.10
2018-09-29T10:57:55.796Z,1.07
2018-09-29T11:00:59.191Z,1.13
2018-09-29T11:04:02.688Z,1.37
2018-09-29T11:07:06.089Z,1.30
2018-09-29T11:10:09.502Z,1.15
2018-09-29T11:13:12.893Z,1.50
2018-09-29T11:16:16.294Z,1.40
2018-09-29T11:19:19.690Z,1.27
2018-09-29T11:22:23.237Z,1.40
2018-09-29T11:25:26.825Z,1.12
2018-09-29T11:28:30.196Z,1.30
2018-09-29T11:31:33.634Z,1.10
2018-09-29T11:34:37.004Z,1.35
2018-09-29T11:37:40.704Z,1.50
2018-09-29T11:40:44.107Z,1.80
2018-09-29T11:43:48.048Z,1.20
2018-09-29T11:46:51.429Z,1.03
2018-09-29T11:49:55.777Z,1.20
2018-09-29T11:52:59.322Z,1.10
2018-09-29T11:56:02.793Z,1.07
2018-09-29T11:59:06.251Z,1.30
2018-09-29T12:02:23.075Z,1.30
2018-09-29T12:05:26.497Z,1.00
2018-09-29T12:08:29.882Z,1.30
2018-09-29T12:11:33.253Z,1.10
2018-09-29T12:14:37.982Z,1.00
2018-09-29T12:17:41.898Z,1.00
2018-09-29T12:20:45.596Z,1.10
2018-09-29T12:23:49.121Z,1.50
2018-09-29T12:26:52.616Z,1.00
2018-09-29T12:29:56.264Z,1.10
2018-09-29T12:32:59.721Z,1.10
2018-09-29T12:36:03.316Z,1.10
2018-09-29T12:39:08.223Z,1.00
2018-09-29T12:42:11.785Z,1.17
2018-09-29T12:45:15.314Z,0.90
2018-09-29T12:48:18.789Z,1.20
2018-09-29T12:51:22.327Z,1.20
2018-09-29T12:54:25.802Z,1.00
2018-09-29T12:57:29.258Z,1.27
2018-09-29T13:00:32.888Z,0.97
2018-09-29T13:03:36.405Z,0.93
2018-09-29T13:06:39.980Z,1.30
2018-09-29T13:09:43.570Z,1.40
2018-09-29T13:12:47.088Z,0.90
2018-09-29T13:15:50.615Z,1.30
2018-09-29T13:18:54.112Z,0.90
2018-09-29T13:21:57.607Z,1.10
2018-09-29T13:25:01.147Z,1.60
2018-09-29T13:28:04.781Z,1.87
2018-09-29T13:31:08.619Z,0.95
2018-09-29T13:34:12.130Z,1.00
2018-09-29T13:37:15.680Z,0.97
2018-09-29T13:40:19.204Z,0.93
2018-09-29T13:43:22.647Z,1.02
2018-09-29T13:46:26.139Z,1.00
2018-09-29T13:49:29.629Z,1.33
2018-09-29T13:52:33.152Z,1.00
2018-09-29T13:55:36.705Z,1.15
2018-09-29T13:58:40.179Z,1.10
2018-09-29T14:01:43.674Z,1.20
2018-09-29T14:04:47.148Z,1.10
2018-09-29T14:07:50.987Z,1.20
2018-09-29T14:10:54.477Z,1.20
2018-09-29T14:13:58.051Z,0.82
2018-09-29T14:17:01.520Z,1.20
2018-09-29T14:20:05.813Z,1.27
2018-09-29T14:23:09.902Z,1.12
2018-09-29T14:26:13.473Z,0.90
2018-09-29T14:29:16.911Z,1.12
2018-09-29T14:32:20.413Z,1.32
2018-09-29T14:35:23.968Z,1.20
2018-09-29T14:38:27.470Z,1.40
2018-09-29T14:41:31.337Z,1.35
2018-09-29T14:44:34.839Z,0.97
2018-09-29T14:47:38.356Z,1.20
2018-09-29T14:50:41.840Z,0.93
2018-09-29T14:53:45.343Z,1.07
2018-09-29T14:56:49.052Z,0.80
2018-09-29T14:59:52.668Z,1.17
2018-09-29T15:02:56.134Z,1.37
2018-09-29T15:05:59.564Z,1.03
2018-09-29T15:09:03.294Z,1.15
2018-09-29T15:12:06.801Z,1.00
2018-09-29T15:15:11.296Z,1.07
2018-09-29T15:18:14.791Z,1.17
2018-09-29T15:21:18.284Z,0.98
2018-09-29T15:24:21.702Z,1.02
2018-09-29T15:27:25.263Z,1.17
2018-09-29T15:30:28.736Z,1.57
2018-09-29T15:33:32.201Z,1.30
2018-09-29T15:36:35.616Z,1.17
2018-09-29T15:39:39.133Z,1.10
2018-09-29T15:42:42.731Z,1.42
2018-09-29T15:45:46.118Z,1.10
2018-09-29T15:48:49.557Z,1.77
2018-09-29T15:51:53.028Z,0.95
2018-09-29T15:54:56.519Z,0.90
2018-09-29T15:57:59.897Z,1.40
2018-09-29T16:01:03.335Z,1.05
2018-09-29T16:04:06.997Z,1.10
2018-09-29T16:07:10.406Z,1.00
2018-09-29T16:10:13.846Z,1.10
2018-09-29T16:13:17.369Z,1.65
2018-09-29T16:16:20.899Z,1.07
2018-09-29T16:19:24.378Z,2.60
2018-09-29T16:22:27.828Z,1.10
2018-09-29T16:25:31.227Z,1.15
2018-09-29T16:28:37.823Z,1.10
2018-09-29T16:31:41.331Z,1.20
2018-09-29T16:34:44.879Z,1.00
2018-09-29T16:37:48.355Z,1.10
2018-09-29T16:40:51.861Z,1.12
2018-09-29T16:43:55.348Z,1.20
2018-09-29T16:46:59.163Z,1.10
2018-09-29T16:50:03.217Z,1.10
2018-09-29T16:53:06.820Z,1.37
2018-09-29T16:56:10.286Z,1.07
2018-09-29T16:59:15.726Z,1.40
2018-09-29T17:02:19.187Z,4.73
2018-09-29T17:05:22.724Z,1.10
2018-09-29T17:08:26.204Z,1.20
2018-09-29T17:11:30.783Z,1.47
2018-09-29T17:14:34.843Z,1.67
2018-09-29T17:17:38.402Z,1.37
2018-09-29T17:20:41.929Z,1.63
2018-09-29T17:23:45.478Z,1.80
2018-09-29T17:26:49.023Z,2.95
2018-09-29T17:29:52.720Z,2.80
2018-09-29T17:32:56.265Z,1.63
2018-09-29T17:35:59.741Z,3.17
2018-09-29T17:39:03.325Z,1.98
2018-09-29T17:42:07.126Z,2.37
2018-09-29T17:45:10.573Z,1.42
2018-09-29T17:48:14.120Z,2.22
2018-09-29T17:51:17.567Z,1.80
2018-09-29T17:54:21.277Z,1.70
2018-09-29T17:57:24.768Z,1.50
2018-09-29T18:00:28.274Z,2.10
2018-09-29T18:03:31.984Z,2.33
2018-09-29T18:06:35.503Z,1.80
2018-09-29T18:09:38.983Z,2.07
2018-09-29T18:12:42.499Z,3.10
2018-09-29T18:15:46.023Z,1.75
2018-09-29T18:18:49.512Z,1.87
2018-09-29T18:21:53.125Z,1.60
2018-09-29T18:24:56.639Z,1.97
2018-09-29T18:28:00.314Z,1.83
2018-09-29T18:31:04.171Z,1.80
2018-09-29T18:34:07.802Z,2.00
2018-09-29T18:37:11.436Z,2.33
2018-09-29T18:40:14.977Z,1.98
2018-09-29T18:43:18.460Z,1.90
2018-09-29T18:46:21.972Z,1.50
2018-09-29T18:49:25.538Z,1.60
2018-09-29T18:52:29.034Z,1.30
2018-09-29T18:55:32.539Z,1.50
2018-09-29T18:58:36.074Z,1.80
2018-09-29T19:01:39.551Z,2.93
2018-09-29T19:04:43.059Z,3.50
2018-09-29T19:07:46.582Z,2.42
2018-09-29T19:10:50.042Z,3.10
2018-09-29T19:13:53.499Z,2.43
2018-09-29T19:16:56.955Z,3.77
2018-09-29T19:20:00.681Z,5.20
2018-09-29T19:23:04.224Z,4.30
2018-09-29T19:26:08.072Z,3.98
2018-09-29T19:29:11.907Z,3.25
2018-09-29T19:32:15.505Z,3.83
2018-09-29T19:35:18.998Z,2.70
2018-09-29T19:38:22.378Z,2.80
2018-09-29T19:41:25.790Z,2.80
2018-09-29T19:44:29.458Z,2.62
2018-09-29T19:47:33.134Z,2.77
2018-09-29T19:50:36.604Z,2.90
2018-09-29T19:53:39.990Z,2.95
2018-09-29T19:56:43.501Z,2.50
2018-09-29T19:59:46.905Z,3.33
2018-09-29T20:02:50.318Z,2.60
2018-09-29T20:05:53.721Z,4.05
2018-09-29T20:08:57.219Z,3.35
2018-09-29T20:12:00.608Z,2.53
2018-09-29T20:15:04.066Z,3.70
2018-09-29T20:18:07.835Z,3.40
2018-09-29T20:21:11.333Z,2.70
2018-09-29T20:24:14.872Z,3.00
2018-09-29T20:27:18.234Z,2.40
2018-09-29T20:30:21.803Z,2.87
2018-09-29T20:33:25.251Z,2.70
2018-09-29T20:36:28.719Z,2.37
2018-09-29T20:39:32.246Z,4.20
2018-09-29T20:42:35.696Z,5.20
2018-09-29T20:45:39.371Z,5.78
2018-09-29T20:48:42.847Z,5.67
2018-09-29T20:51:46.357Z,5.20
2018-09-29T20:54:49.749Z,4.95
2018-09-29T20:57:53.157Z,4.20
2018-09-29T21:00:56.554Z,3.90
2018-09-29T21:03:59.942Z,3.27
2018-09-29T21:07:03.477Z,2.90
2018-09-29T21:10:06.991Z,4.45
2018-09-29T21:13:10.631Z,3.80
2018-09-29T21:16:13.990Z,3.05
2018-09-29T21:19:17.464Z,2.47
2018-09-29T21:22:21.155Z,2.10
2018-09-29T21:25:24.582Z,1.70
2018-09-29T21:28:28.016Z,1.63
2018-09-29T21:31:31.459Z,2.10
2018-09-29T21:34:34.837Z,1.50
2018-09-29T21:37:38.287Z,1.60
2018-09-29T21:40:41.660Z,1.50
2018-09-29T21:43:45.133Z,1.80
2018-09-29T21:46:48.580Z,2.10
2018-09-29T21:49:51.964Z,1.57
2018-09-29T21:52:55.383Z,1.90
2018-09-29T21:55:58.763Z,1.53
2018-09-29T21:59:02.155Z,1.50
2018-09-29T22:02:05.582Z,1.77
2018-09-29T22:05:08.971Z,1.50
2018-09-29T22:08:12.607Z,1.42
2018-09-29T22:11:15.986Z,1.50
2018-09-29T22:14:19.378Z,1.80
2018-09-29T22:17:22.792Z,1.85
2018-09-29T22:20:26.182Z,1.80
2018-09-29T22:23:29.807Z,2.07
2018-09-29T22:26:33.327Z,1.67
2018-09-29T22:29:36.790Z,1.60
2018-09-29T22:32:40.332Z,1.70
2018-09-29T22:35:44.108Z,1.35
2018-09-29T22:38:47.546Z,1.40
2018-09-29T22:41:51.106Z,1.47
2018-09-29T22:44:54.609Z,1.43
2018-09-29T22:47:59.109Z,1.53
2018-09-29T22:51:02.640Z,1.83
2018-09-29T22:54:06.447Z,1.40
2018-09-29T22:57:09.925Z,1.70
2018-09-29T23:00:13.440Z,1.50
2018-09-29T23:03:16.959Z,1.47
2018-09-29T23:06:20.517Z,1.40
2018-09-29T23:09:24.037Z,1.30
2018-09-29T23:12:27.606Z,1.40
2018-09-29T23:15:31.071Z,1.43
2018-09-29T23:18:34.579Z,1.50
2018-09-29T23:21:38.058Z,1.37
2018-09-29T23:24:41.663Z,1.47
2018-09-29T23:27:45.169Z,1.40
2018-09-29T23:30:50.090Z,1.50
2018-09-29T23:33:53.583Z,1.37
2018-09-29T23:36:57.134Z,1.35
2018-09-29T23:40:00.681Z,1.43
2018-09-29T23:43:04.137Z,1.30
2018-09-29T23:46:07.642Z,1.60
2018-09-29T23:49:11.114Z,1.80
2018-09-29T23:52:15.637Z,1.43
2018-09-29T23:55:19.129Z,1.30
2018-09-29T23:58:22.670Z,1.70
